Time;durP1;ratioP1;P1;durP2;ratioP2;P2;SDS_P1;SDS_P2;PMS_P1;PMS_P2;Temp;Humidity;BMP_temperature;BMP_pressure;BME280_temperature;BME280_humidity;BME280_pressure;Samples;Min_cycle;Max_cycle;Signal;HPM_P1;HPM_P2
2023/06/25 00:00:27;;;;;;;18.52;12.50;;;17.50;92.30;;;;;;5038861;28;20486;-69
2023/06/25 00:02:52;;;;;;;19.50;13.07;;;17.40;92.00;;;;;;5037278;28;20123;-68
2023/06/25 00:05:18;;;;;;;16.90;13.05;;;17.40;91.90;;;;;;5025413;28;20058;-68
2023/06/25 00:07:43;;;;;;;20.50;12.73;;;17.30;92.00;;;;;;5027372;28;20446;-68
2023/06/25 00:10:09;;;;;;;19.52;14.20;;;17.30;92.10;;;;;;5029098;28;20091;-68
2023/06/25 00:12:35;;;;;;;21.60;14.60;;;17.30;92.20;;;;;;5032810;28;20028;-70
2023/06/25 00:15:01;;;;;;;18.65;14.90;;;17.30;92.40;;;;;;5041583;28;20464;-68
2023/06/25 00:17:27;;;;;;;20.10;14.57;;;17.30;92.30;;;;;;5028955;28;20029;-70
2023/06/25 00:19:56;;;;;;;19.92;14.70;;;17.20;92.00;;;;;;5027927;28;20026;-68
2023/06/25 00:22:23;;;;;;;21.23;15.25;;;17.20;92.20;;;;;;5028308;28;20041;-68
2023/06/25 00:24:48;;;;;;;22.80;15.57;;;17.20;92.80;;;;;;5027307;28;20039;-69
2023/06/25 00:27:14;;;;;;;22.55;15.43;;;17.10;92.40;;;;;;5027505;28;20029;-68
2023/06/25 00:29:39;;;;;;;22.77;16.20;;;17.10;92.50;;;;;;5027502;28;20348;-68
2023/06/25 00:32:05;;;;;;;24.55;16.15;;;17.10;92.60;;;;;;5029953;28;20059;-69
2023/06/25 00:34:31;;;;;;;18.63;15.70;;;17.00;92.60;;;;;;5025962;28;20017;-70
2023/06/25 00:36:57;;;;;;;21.90;16.33;;;17.00;92.60;;;;;;5039807;28;20123;-68
2023/06/25 00:39:22;;;;;;;22.55;16.15;;;17.00;92.80;;;;;;5028991;28;20065;-69
2023/06/25 00:41:48;;;;;;;24.45;16.13;;;17.00;92.80;;;;;;5026569;28;20057;-68
2023/06/25 00:44:14;;;;;;;21.30;15.88;;;17.00;93.00;;;;;;5019382;28;20033;-68
2023/06/25 00:46:39;;;;;;;20.77;15.55;;;17.00;92.80;;;;;;5026187;28;20055;-68
2023/06/25 00:49:06;;;;;;;19.40;15.95;;;17.00;92.70;;;;;;5025473;28;20030;-68
2023/06/25 00:51:34;;;;;;;19.58;15.45;;;16.90;92.70;;;;;;5024185;28;20033;-68
2023/06/25 00:54:00;;;;;;;19.48;14.82;;;16.90;92.70;;;;;;5021788;28;20427;-69
2023/06/25 00:56:29;;;;;;;19.17;14.40;;;16.90;92.80;;;;;;5032210;28;20071;-69
2023/06/25 00:59:01;;;;;;;19.52;14.95;;;16.90;93.20;;;;;;5026044;28;20104;-68
2023/06/25 01:01:54;;;;;;;19.52;14.68;;;16.80;93.20;;;;;;5020974;28;20037;-68
2023/06/25 01:04:25;;;;;;;21.10;14.45;;;16.80;93.40;;;;;;5022556;28;20138;-69
2023/06/25 01:06:55;;;;;;;21.90;14.23;;;16.80;93.50;;;;;;5027606;28;20124;-69
2023/06/25 01:09:20;;;;;;;20.85;14.43;;;16.80;93.70;;;;;;5027584;28;20029;-68
2023/06/25 01:12:07;;;;;;;22.60;15.43;;;16.80;93.90;;;;;;5025172;28;20029;-68
2023/06/25 01:14:33;;;;;;;18.65;14.50;;;16.70;93.70;;;;;;5036871;28;20120;-69
2023/06/25 01:16:59;;;;;;;22.52;14.93;;;16.70;93.80;;;;;;5023297;28;20117;-68
2023/06/25 01:19:29;;;;;;;20.73;14.40;;;16.60;93.70;;;;;;5027117;28;20120;-68
2023/06/25 01:21:59;;;;;;;18.90;12.73;;;16.60;93.40;;;;;;5015181;28;20025;-69
2023/06/25 01:24:27;;;;;;;17.17;13.55;;;16.60;93.40;;;;;;5029328;28;20049;-69
2023/06/25 01:26:56;;;;;;;18.23;13.88;;;16.50;93.50;;;;;;5011690;28;20449;-69
2023/06/25 01:29:22;;;;;;;19.90;13.55;;;16.60;93.30;;;;;;5022345;28;20077;-69
2023/06/25 01:31:51;;;;;;;16.20;12.70;;;16.50;93.50;;;;;;5023298;28;20483;-69
2023/06/25 01:34:23;;;;;;;19.60;13.20;;;16.50;94.00;;;;;;5024907;28;20026;-68
2023/06/25 01:36:52;;;;;;;22.60;14.32;;;16.50;93.70;;;;;;5026404;28;20103;-69
2023/06/25 01:39:19;;;;;;;19.10;13.43;;;16.40;93.90;;;;;;5030223;28;20096;-69
2023/06/25 01:41:46;;;;;;;17.60;13.45;;;16.50;94.10;;;;;;5031783;28;20079;-70
2023/06/25 01:44:32;;;;;;;16.67;13.23;;;16.40;94.40;;;;;;5026617;28;20073;-70
2023/06/25 01:46:58;;;;;;;17.02;12.93;;;16.40;94.30;;;;;;5026112;28;20108;-68
2023/06/25 01:49:25;;;;;;;17.45;13.75;;;16.40;94.20;;;;;;5023930;28;20032;-68
2023/06/25 01:51:50;;;;;;;19.10;12.75;;;16.30;94.40;;;;;;5019584;28;20330;-68
2023/06/25 01:54:16;;;;;;;21.38;13.63;;;16.30;94.20;;;;;;5024348;28;20033;-69
2023/06/25 01:56:42;;;;;;;17.55;13.23;;;16.30;93.90;;;;;;5032200;28;20028;-68
2023/06/25 01:59:09;;;;;;;15.43;12.25;;;16.30;94.20;;;;;;5026170;28;20884;-68
2023/06/25 02:01:34;;;;;;;20.92;13.88;;;16.20;94.40;;;;;;5025911;28;20104;-68
2023/06/25 02:04:00;;;;;;;16.45;13.07;;;16.20;94.50;;;;;;5031606;28;20125;-70
2023/06/25 02:06:25;;;;;;;19.67;12.80;;;16.20;94.80;;;;;;5020771;28;20045;-70
2023/06/25 02:08:51;;;;;;;16.58;12.73;;;16.20;94.30;;;;;;5028149;28;20481;-67
2023/06/25 02:11:16;;;;;;;18.80;13.15;;;16.20;94.20;;;;;;5021199;28;20338;-68
2023/06/25 02:13:42;;;;;;;17.73;13.23;;;16.20;94.40;;;;;;5024892;28;20113;-68
2023/06/25 02:16:07;;;;;;;17.33;12.98;;;16.20;94.50;;;;;;5019906;28;20101;-68
2023/06/25 02:18:34;;;;;;;17.75;13.60;;;16.10;94.60;;;;;;5022848;28;20456;-68
2023/06/25 02:21:00;;;;;;;17.98;14.90;;;16.10;94.50;;;;;;5024828;28;20497;-68
2023/06/25 02:23:25;;;;;;;20.48;13.68;;;16.10;94.20;;;;;;5022197;28;20096;-68
2023/06/25 02:25:51;;;;;;;20.60;13.38;;;16.10;94.00;;;;;;5021179;28;20025;-68
2023/06/25 02:28:17;;;;;;;17.00;13.25;;;16.00;94.30;;;;;;5025625;28;20022;-68
2023/06/25 02:30:42;;;;;;;27.25;13.48;;;16.00;94.10;;;;;;5024469;28;20058;-68
2023/06/25 02:33:08;;;;;;;19.05;14.60;;;16.00;94.40;;;;;;5024455;28;20137;-69
2023/06/25 02:35:34;;;;;;;19.95;15.70;;;16.00;94.70;;;;;;5023100;28;20033;-68
2023/06/25 02:37:59;;;;;;;21.77;14.15;;;16.00;95.10;;;;;;5024888;28;20079;-68
2023/06/25 02:40:27;;;;;;;17.55;14.15;;;16.00;95.00;;;;;;5021562;28;20128;-68
2023/06/25 02:42:53;;;;;;;23.65;13.32;;;16.00;94.80;;;;;;5026814;28;20064;-70
2023/06/25 02:45:18;;;;;;;19.55;13.43;;;16.00;94.50;;;;;;5023830;28;20068;-68
2023/06/25 02:47:44;;;;;;;19.13;13.05;;;16.00;94.70;;;;;;5027514;28;20104;-68
2023/06/25 02:50:09;;;;;;;18.23;13.35;;;16.00;94.80;;;;;;5038224;28;20040;-68
2023/06/25 02:52:35;;;;;;;18.40;12.55;;;16.00;94.70;;;;;;5024667;28;20045;-71
2023/06/25 02:55:00;;;;;;;17.88;13.32;;;16.00;94.40;;;;;;5027221;28;20078;-68
2023/06/25 02:57:29;;;;;;;18.88;13.18;;;15.90;94.80;;;;;;5025855;28;20098;-69
2023/06/25 02:59:55;;;;;;;20.77;12.90;;;15.90;94.80;;;;;;5022675;28;20072;-68
2023/06/25 03:02:21;;;;;;;20.40;12.93;;;15.90;94.90;;;;;;5023962;28;20052;-68
2023/06/25 03:04:46;;;;;;;16.27;12.85;;;15.90;95.00;;;;;;5029099;28;20088;-70
2023/06/25 03:07:12;;;;;;;16.63;12.60;;;15.80;95.10;;;;;;5021014;28;20187;-69
2023/06/25 03:09:38;;;;;;;20.45;14.48;;;15.90;95.40;;;;;;5024720;28;20104;-68
2023/06/25 03:12:04;;;;;;;15.82;12.77;;;15.90;95.40;;;;;;5020572;28;20039;-73
2023/06/25 03:14:29;;;;;;;19.27;13.15;;;15.90;95.30;;;;;;5024736;28;20116;-68
2023/06/25 03:16:54;;;;;;;17.20;12.98;;;15.90;94.80;;;;;;5015436;28;20074;-68
2023/06/25 03:19:20;;;;;;;18.75;13.25;;;16.00;95.00;;;;;;5024988;28;20037;-68
2023/06/25 03:21:45;;;;;;;19.25;14.30;;;15.90;95.10;;;;;;5035934;28;20063;-70
2023/06/25 03:24:11;;;;;;;23.75;15.57;;;16.00;95.00;;;;;;5033994;28;20106;-68
2023/06/25 03:26:36;;;;;;;21.92;14.63;;;16.00;95.10;;;;;;5034898;28;20579;-68
2023/06/25 03:29:02;;;;;;;22.48;14.93;;;16.00;95.20;;;;;;5026285;28;20037;-69
2023/06/25 03:31:27;;;;;;;23.65;14.70;;;16.00;94.90;;;;;;5023939;28;20120;-68
2023/06/25 03:33:53;;;;;;;21.77;14.55;;;16.00;95.00;;;;;;5022312;28;20102;-68
2023/06/25 03:36:18;;;;;;;18.25;13.10;;;16.00;95.30;;;;;;5031311;28;20025;-69
2023/06/25 03:38:44;;;;;;;19.27;13.98;;;16.00;95.50;;;;;;5044577;28;20134;-70
2023/06/25 03:41:09;;;;;;;18.13;13.10;;;16.00;95.30;;;;;;5026282;28;20116;-69
2023/06/25 03:43:35;;;;;;;16.13;12.45;;;16.00;94.90;;;;;;5030142;28;20033;-68
2023/06/25 03:46:00;;;;;;;18.30;13.13;;;16.10;95.00;;;;;;5026356;28;20026;-68
2023/06/25 03:48:26;;;;;;;18.92;12.85;;;16.10;94.80;;;;;;5028488;28;20081;-68
2023/06/25 03:50:51;;;;;;;18.05;13.05;;;16.10;94.90;;;;;;5028580;28;20188;-68
2023/06/25 03:53:17;;;;;;;19.23;13.43;;;16.10;94.80;;;;;;5026570;28;20025;-69
2023/06/25 03:55:43;;;;;;;16.17;12.23;;;16.10;94.70;;;;;;5029903;28;20084;-70
2023/06/25 03:58:08;;;;;;;17.88;13.25;;;16.20;94.70;;;;;;5030404;28;20076;-68
2023/06/25 04:00:34;;;;;;;16.95;11.95;;;16.20;94.70;;;;;;5028326;28;20041;-68
2023/06/25 04:02:59;;;;;;;16.20;12.43;;;16.20;94.80;;;;;;5037099;28;20034;-68
2023/06/25 04:05:25;;;;;;;15.15;11.63;;;16.30;95.00;;;;;;5024425;28;20045;-68
2023/06/25 04:07:50;;;;;;;16.65;11.35;;;16.30;94.90;;;;;;5021412;28;20052;-68
2023/06/25 04:10:16;;;;;;;14.93;10.50;;;16.40;95.10;;;;;;5033300;28;20033;-69
2023/06/25 04:12:41;;;;;;;13.43;10.43;;;16.40;94.90;;;;;;5031494;28;20072;-68
2023/06/25 04:15:07;;;;;;;14.90;10.73;;;16.40;94.80;;;;;;5031861;28;20369;-71
2023/06/25 04:17:33;;;;;;;13.52;10.50;;;16.50;94.80;;;;;;5017445;28;20025;-68
2023/06/25 04:19:58;;;;;;;13.75;9.85;;;16.50;94.70;;;;;;5022790;28;20127;-68
2023/06/25 04:22:24;;;;;;;14.23;10.68;;;16.60;94.80;;;;;;5030003;28;20030;-68
2023/06/25 04:24:49;;;;;;;13.38;10.60;;;16.60;94.70;;;;;;5029657;28;20029;-68
2023/06/25 04:27:15;;;;;;;14.57;11.27;;;16.60;94.40;;;;;;5027823;28;20387;-64
2023/06/25 04:29:41;;;;;;;16.33;10.60;;;16.70;94.40;;;;;;5031217;28;20029;-64
2023/06/25 04:32:06;;;;;;;14.57;11.55;;;16.70;94.30;;;;;;5019741;28;20064;-65
2023/06/25 04:34:32;;;;;;;18.58;12.38;;;16.80;94.50;;;;;;5029293;28;20037;-68
2023/06/25 04:36:57;;;;;;;15.57;11.85;;;16.90;94.70;;;;;;5025638;28;20163;-65
2023/06/25 04:39:23;;;;;;;16.88;11.48;;;17.00;94.60;;;;;;5029225;28;20033;-65
2023/06/25 04:41:48;;;;;;;17.55;12.32;;;17.00;94.60;;;;;;5025160;28;20052;-66
2023/06/25 04:44:14;;;;;;;20.50;13.38;;;17.10;94.50;;;;;;5022261;28;20048;-64
2023/06/25 04:46:39;;;;;;;19.23;13.43;;;17.20;94.20;;;;;;5025691;28;20045;-65
2023/06/25 04:49:05;;;;;;;16.13;11.63;;;17.30;94.00;;;;;;5021287;28;20049;-65
2023/06/25 04:51:30;;;;;;;19.08;12.48;;;17.40;94.00;;;;;;5023730;28;20124;-64
2023/06/25 04:53:56;;;;;;;17.48;11.93;;;17.50;93.80;;;;;;5021285;28;20101;-65
2023/06/25 04:56:21;;;;;;;20.13;12.75;;;17.50;93.90;;;;;;5026240;28;20033;-67
2023/06/25 04:58:46;;;;;;;19.80;13.60;;;17.60;93.80;;;;;;5027140;28;20049;-67
2023/06/25 05:01:12;;;;;;;22.35;14.68;;;17.70;93.20;;;;;;5027498;28;20311;-67
2023/06/25 05:03:38;;;;;;;22.05;15.40;;;17.80;92.40;;;;;;5019803;28;20049;-65
2023/06/25 05:06:04;;;;;;;25.52;16.88;;;18.00;91.90;;;;;;5013735;28;20551;-64
2023/06/25 05:08:29;;;;;;;22.13;15.00;;;18.10;90.90;;;;;;5024570;28;20021;-64
2023/06/25 05:10:55;;;;;;;24.35;13.65;;;18.30;90.10;;;;;;5028139;28;20041;-64
2023/06/25 05:13:20;;;;;;;26.00;15.30;;;18.50;90.60;;;;;;5029050;28;20077;-64
2023/06/25 05:15:46;;;;;;;22.25;14.00;;;18.60;89.20;;;;;;5024670;28;20029;-65
2023/06/25 05:18:12;;;;;;;17.92;11.63;;;18.80;89.50;;;;;;5027410;28;20025;-64
2023/06/25 05:20:38;;;;;;;20.98;14.07;;;19.00;90.10;;;;;;5022904;28;20021;-64
2023/06/25 05:23:05;;;;;;;18.98;12.80;;;19.20;90.00;;;;;;5015974;28;20048;-65
2023/06/25 05:25:32;;;;;;;21.23;12.18;;;19.40;89.40;;;;;;5018040;28;20402;-64
2023/06/25 05:27:57;;;;;;;18.45;11.95;;;19.50;88.90;;;;;;5024953;28;20362;-65
2023/06/25 05:30:23;;;;;;;16.10;11.35;;;19.60;88.90;;;;;;5024968;28;20087;-63
2023/06/25 05:32:48;;;;;;;18.95;11.50;;;19.70;87.80;;;;;;5027073;28;20037;-63
2023/06/25 05:35:14;;;;;;;17.33;11.25;;;19.70;87.70;;;;;;5021397;28;20322;-61
2023/06/25 05:37:40;;;;;;;15.80;11.15;;;19.70;86.40;;;;;;5040013;28;20345;-62
2023/06/25 05:40:06;;;;;;;16.67;10.93;;;19.70;86.90;;;;;;5024714;28;20145;-63
2023/06/25 05:42:31;;;;;;;20.00;11.88;;;19.70;86.50;;;;;;5027023;28;20023;-61
2023/06/25 05:44:57;;;;;;;18.85;12.07;;;19.60;86.40;;;;;;5031180;28;20031;-62
2023/06/25 05:47:22;;;;;;;18.77;11.73;;;19.60;86.20;;;;;;5022061;28;20025;-64
2023/06/25 05:49:48;;;;;;;18.90;10.05;;;19.60;87.10;;;;;;5019337;28;20084;-65
2023/06/25 05:52:13;;;;;;;15.82;11.52;;;19.60;87.40;;;;;;5018090;28;20024;-63
2023/06/25 05:54:39;;;;;;;19.45;12.75;;;19.50;87.20;;;;;;5018552;28;20109;-65
2023/06/25 05:57:05;;;;;;;25.02;12.13;;;19.60;86.80;;;;;;5015653;28;20025;-63
2023/06/25 05:59:30;;;;;;;16.17;12.23;;;19.80;85.90;;;;;;5027546;28;20354;-64
2023/06/25 06:01:56;;;;;;;16.83;11.30;;;19.90;85.40;;;;;;5019112;28;20026;-64
2023/06/25 06:04:21;;;;;;;20.83;11.50;;;20.00;85.00;;;;;;5019550;28;20148;-63
2023/06/25 06:06:47;;;;;;;16.75;11.20;;;20.10;86.30;;;;;;5016348;28;20057;-66
2023/06/25 06:09:12;;;;;;;20.05;10.80;;;20.30;85.20;;;;;;5017931;28;20444;-67
2023/06/25 06:11:38;;;;;;;15.90;9.80;;;20.50;85.50;;;;;;5017259;28;20021;-68
2023/06/25 06:14:05;;;;;;;16.92;11.15;;;20.60;84.50;;;;;;5024498;28;20043;-67
2023/06/25 06:16:30;;;;;;;13.77;9.48;;;20.80;83.50;;;;;;5018912;28;20044;-66
2023/06/25 06:18:56;;;;;;;16.45;9.90;;;21.00;82.80;;;;;;5016827;28;20021;-67
2023/06/25 06:21:21;;;;;;;14.45;9.32;;;21.00;82.00;;;;;;5016810;28;20354;-68
2023/06/25 06:23:46;;;;;;;16.48;9.77;;;21.20;82.10;;;;;;5019641;28;20030;-65
2023/06/25 06:26:12;;;;;;;12.60;9.07;;;21.30;80.60;;;;;;5025203;28;20072;-65
2023/06/25 06:28:37;;;;;;;11.95;8.35;;;21.60;81.90;;;;;;5019724;28;20033;-65
2023/06/25 06:31:03;;;;;;;15.23;8.55;;;21.80;81.40;;;;;;5011536;28;20458;-68
2023/06/25 06:33:28;;;;;;;11.95;8.15;;;22.00;78.00;;;;;;5025800;28;20079;-67
2023/06/25 06:35:54;;;;;;;14.15;9.13;;;22.20;79.70;;;;;;5024792;28;20025;-67
2023/06/25 06:38:19;;;;;;;13.50;8.13;;;22.30;77.90;;;;;;5027834;28;20060;-67
2023/06/25 06:40:45;;;;;;;12.95;8.60;;;22.50;78.10;;;;;;5025834;28;20370;-68
2023/06/25 06:43:10;;;;;;;11.13;7.90;;;22.60;77.70;;;;;;5024281;28;20044;-68
2023/06/25 06:45:36;;;;;;;10.85;6.93;;;22.60;75.80;;;;;;5024496;28;20452;-69
2023/06/25 06:48:01;;;;;;;10.68;6.80;;;22.90;75.60;;;;;;5027192;28;20141;-68
2023/06/25 06:50:27;;;;;;;11.18;6.78;;;22.80;74.50;;;;;;5025904;28;20026;-67
2023/06/25 06:52:52;;;;;;;10.52;6.75;;;22.90;76.10;;;;;;5031187;28;20065;-68
2023/06/25 06:55:18;;;;;;;14.05;6.32;;;23.20;77.40;;;;;;5045277;28;20070;-67
2023/06/25 06:57:43;;;;;;;9.05;5.95;;;23.30;75.90;;;;;;5026852;28;20454;-67
2023/06/25 07:00:09;;;;;;;10.80;5.85;;;23.50;75.00;;;;;;5028910;28;20029;-67
2023/06/25 07:02:35;;;;;;;11.20;6.63;;;23.40;69.90;;;;;;5032815;28;20464;-68
2023/06/25 07:05:02;;;;;;;10.38;6.55;;;23.40;69.70;;;;;;5027909;28;20110;-68
2023/06/25 07:07:27;;;;;;;9.75;6.78;;;23.50;70.60;;;;;;5028434;28;20112;-65
2023/06/25 07:09:56;;;;;;;10.65;6.30;;;23.30;71.70;;;;;;5032584;28;20433;-66
2023/06/25 07:12:22;;;;;;;10.10;7.00;;;23.50;70.60;;;;;;5029724;28;20025;-66
2023/06/25 07:14:47;;;;;;;10.25;6.82;;;23.50;71.10;;;;;;5029747;28;20030;-68
2023/06/25 07:17:13;;;;;;;10.65;6.68;;;23.50;70.50;;;;;;5026790;28;20123;-66
2023/06/25 07:19:38;;;;;;;9.10;6.47;;;23.60;70.20;;;;;;5028309;28;20029;-70
2023/06/25 07:22:04;;;;;;;9.95;7.07;;;23.80;69.40;;;;;;5028061;28;20048;-66
2023/06/25 07:24:30;;;;;;;9.10;6.25;;;23.90;69.70;;;;;;5028542;28;20041;-68
2023/06/25 07:26:55;;;;;;;9.90;6.60;;;24.00;67.70;;;;;;5029567;28;20326;-65
2023/06/25 07:29:20;;;;;;;9.90;6.93;;;24.10;69.00;;;;;;5030655;28;20025;-69
2023/06/25 07:31:46;;;;;;;11.30;6.88;;;24.00;69.60;;;;;;5026014;28;20175;-66
2023/06/25 07:34:11;;;;;;;10.68;6.85;;;24.10;69.60;;;;;;5030942;28;20120;-66
2023/06/25 07:36:37;;;;;;;10.07;6.20;;;24.30;67.80;;;;;;5028222;28;20056;-66
2023/06/25 07:39:04;;;;;;;10.40;6.78;;;24.30;69.00;;;;;;5029196;28;20369;-67
2023/06/25 07:41:30;;;;;;;8.13;5.57;;;24.00;69.00;;;;;;5028775;28;20028;-66
2023/06/25 07:43:55;;;;;;;8.60;6.18;;;24.50;69.30;;;;;;5030848;28;20278;-67
2023/06/25 07:46:24;;;;;;;10.05;6.20;;;24.60;69.50;;;;;;5027557;28;20041;-66
2023/06/25 07:48:50;;;;;;;12.10;6.05;;;25.00;69.00;;;;;;5028836;28;20408;-66
2023/06/25 07:51:15;;;;;;;10.77;7.65;;;25.00;68.00;;;;;;5026365;28;20025;-68
2023/06/25 07:53:41;;;;;;;11.90;6.38;;;25.10;66.20;;;;;;5029354;28;20037;-66
2023/06/25 07:56:06;;;;;;;9.73;6.95;;;25.30;69.50;;;;;;5027830;28;20049;-67
2023/06/25 07:58:33;;;;;;;8.65;6.72;;;25.50;66.70;;;;;;5027782;28;20112;-66
2023/06/25 08:00:59;;;;;;;8.73;6.07;;;25.80;65.50;;;;;;5031870;28;20028;-66
2023/06/25 08:03:25;;;;;;;7.05;5.45;;;25.90;64.20;;;;;;5036998;28;20446;-66
2023/06/25 08:05:50;;;;;;;10.00;5.40;;;26.20;64.80;;;;;;5023592;28;20038;-66
2023/06/25 08:08:16;;;;;;;10.43;5.32;;;26.10;62.40;;;;;;5023112;28;20068;-67
2023/06/25 08:10:41;;;;;;;7.03;5.28;;;26.40;63.70;;;;;;5027710;28;20505;-66
2023/06/25 08:13:07;;;;;;;6.68;5.00;;;26.60;63.90;;;;;;5024133;28;20030;-66
2023/06/25 08:15:32;;;;;;;11.05;5.93;;;26.60;62.60;;;;;;5024176;28;20037;-66
2023/06/25 08:17:58;;;;;;;10.18;5.80;;;26.70;61.10;;;;;;5024464;28;20045;-66
2023/06/25 08:20:23;;;;;;;8.82;4.88;;;26.80;60.10;;;;;;5025828;28;20029;-67
2023/06/25 08:22:49;;;;;;;7.50;5.60;;;27.10;62.20;;;;;;5029344;28;20078;-66
2023/06/25 08:25:26;;;;;;;8.63;5.43;;;27.20;61.40;;;;;;5025934;28;20087;-68
2023/06/25 08:27:52;;;;;;;11.13;5.90;;;26.90;57.90;;;;;;5027890;28;20103;-66
2023/06/25 08:30:18;;;;;;;8.50;5.05;;;26.90;57.50;;;;;;5035994;28;20132;-66
2023/06/25 08:32:43;;;;;;;9.07;4.68;;;27.00;59.40;;;;;;5029500;28;20048;-67
2023/06/25 08:35:09;;;;;;;7.82;5.32;;;27.30;60.50;;;;;;5029474;28;20031;-66
2023/06/25 08:37:35;;;;;;;6.72;4.90;;;27.50;57.60;;;;;;5037198;28;20509;-68
2023/06/25 08:40:00;;;;;;;7.05;4.80;;;27.40;58.80;;;;;;5029143;28;20033;-68
2023/06/25 08:42:27;;;;;;;8.02;4.75;;;27.60;59.30;;;;;;5020998;28;20029;-69
2023/06/25 08:44:53;;;;;;;7.78;5.13;;;27.70;58.70;;;;;;5029549;28;20493;-67
2023/06/25 08:47:19;;;;;;;7.72;4.78;;;27.80;58.00;;;;;;5026537;28;20096;-69
2023/06/25 08:49:49;;;;;;;6.97;5.18;;;27.70;57.00;;;;;;5029737;28;20084;-68
2023/06/25 08:52:18;;;;;;;7.53;4.97;;;27.70;57.60;;;;;;5037453;28;20437;-67
2023/06/25 08:54:45;;;;;;;9.57;5.25;;;27.60;57.50;;;;;;5034032;28;20124;-66
2023/06/25 08:57:10;;;;;;;8.57;4.63;;;27.80;56.90;;;;;;5046943;28;20064;-67
2023/06/25 08:59:36;;;;;;;5.65;4.30;;;28.00;58.00;;;;;;5029972;28;20446;-67
2023/06/25 09:02:02;;;;;;;5.97;4.78;;;28.50;56.50;;;;;;5024365;28;20100;-68
2023/06/25 09:04:28;;;;;;;7.15;5.00;;;28.30;56.10;;;;;;5024099;28;20107;-70
2023/06/25 09:06:54;;;;;;;9.05;4.57;;;28.10;56.20;;;;;;5023648;28;20422;-66
2023/06/25 09:09:19;;;;;;;6.95;5.38;;;28.10;55.40;;;;;;5025676;28;20033;-67
2023/06/25 09:11:44;;;;;;;6.47;4.90;;;28.10;54.30;;;;;;5028041;28;20033;-67
2023/06/25 09:14:10;;;;;;;7.65;4.65;;;28.20;55.00;;;;;;5026632;28;20036;-66
2023/06/25 09:16:49;;;;;;;8.13;4.95;;;28.40;55.60;;;;;;5022324;28;20033;-68
2023/06/25 09:19:18;;;;;;;8.15;4.97;;;28.70;54.90;;;;;;5032661;28;20345;-67
2023/06/25 09:21:44;;;;;;;8.90;5.10;;;28.40;53.10;;;;;;5025421;28;20060;-68
2023/06/25 09:24:15;;;;;;;7.15;4.50;;;28.00;54.10;;;;;;5019697;28;20442;-68
2023/06/25 09:26:52;;;;;;;8.65;4.80;;;27.90;53.80;;;;;;5031742;28;20484;-67
2023/06/25 09:29:19;;;;;;;6.35;4.80;;;28.00;53.50;;;;;;5030853;28;20097;-67
2023/06/25 09:31:46;;;;;;;7.78;4.18;;;28.60;57.00;;;;;;5042312;28;20115;-67
2023/06/25 09:34:14;;;;;;;6.53;4.65;;;28.90;53.20;;;;;;5029237;28;20036;-67
2023/06/25 09:36:40;;;;;;;6.65;4.30;;;29.20;52.80;;;;;;5029414;28;20029;-69
2023/06/25 09:39:08;;;;;;;9.18;4.72;;;29.10;49.60;;;;;;5029593;28;20040;-68
2023/06/25 09:41:34;;;;;;;6.38;4.50;;;29.10;51.20;;;;;;5028248;28;20032;-67
2023/06/25 09:44:06;;;;;;;10.55;4.68;;;29.30;49.90;;;;;;5026920;28;20045;-68
2023/06/25 09:46:36;;;;;;;5.60;4.22;;;29.60;51.70;;;;;;5023321;28;20021;-68
2023/06/25 09:49:02;;;;;;;;;;;29.80;51.30;;;;;;5025013;28;20123;-67
2023/06/25 09:51:33;;;;;;;6.28;4.25;;;29.30;51.60;;;;;;5023391;28;19905;-67
2023/06/25 09:54:02;;;;;;;5.25;4.25;;;29.30;51.80;;;;;;5033991;28;20028;-67
2023/06/25 09:56:29;;;;;;;7.78;4.43;;;29.70;51.30;;;;;;5028341;28;20029;-68
2023/06/25 09:58:55;;;;;;;6.85;4.20;;;30.30;50.20;;;;;;5032185;28;20043;-68
2023/06/25 10:01:20;;;;;;;8.98;4.22;;;30.30;48.60;;;;;;5021834;28;20421;-67
2023/06/25 10:03:46;;;;;;;6.00;3.70;;;29.80;48.30;;;;;;5021527;28;20037;-68
2023/06/25 10:06:12;;;;;;;5.78;3.83;;;29.90;49.30;;;;;;5030485;28;20435;-67
2023/06/25 10:08:37;;;;;;;7.45;4.20;;;30.10;49.10;;;;;;5027184;28;20036;-67
2023/06/25 10:11:05;;;;;;;5.47;3.80;;;29.60;47.00;;;;;;5024066;28;20315;-68
2023/06/25 10:13:30;;;;;;;9.30;4.30;;;30.00;49.00;;;;;;5025275;28;20036;-67
2023/06/25 10:16:02;;;;;;;5.80;3.95;;;30.40;48.20;;;;;;5031162;28;20032;-69
2023/06/25 10:18:28;;;;;;;5.78;3.55;;;30.70;49.80;;;;;;5026375;28;20319;-66
2023/06/25 10:20:58;;;;;;;6.30;4.00;;;30.90;47.60;;;;;;5022616;28;20052;-68
2023/06/25 10:23:24;;;;;;;5.10;3.60;;;30.80;45.60;;;;;;5025788;28;20529;-66
2023/06/25 10:25:55;;;;;;;6.35;3.78;;;31.40;47.10;;;;;;5027752;28;20067;-67
2023/06/25 10:28:37;;;;;;;5.22;3.28;;;31.20;45.60;;;;;;5022629;28;20057;-66
2023/06/25 10:31:13;;;;;;;5.05;3.70;;;31.20;48.90;;;;;;5025093;28;20403;-67
2023/06/25 10:33:39;;;;;;;6.65;3.33;;;31.20;46.00;;;;;;5031087;28;20326;-67
2023/06/25 10:36:08;;;;;;;4.85;3.47;;;31.60;45.80;;;;;;5029050;28;20033;-67
2023/06/25 10:38:34;;;;;;;6.60;3.40;;;31.10;44.30;;;;;;5027628;28;20116;-67
2023/06/25 10:41:00;;;;;;;4.68;3.20;;;31.40;46.10;;;;;;5035169;28;20052;-68
2023/06/25 10:43:25;;;;;;;4.18;3.20;;;31.90;46.20;;;;;;5033761;28;20150;-68
2023/06/25 10:45:55;;;;;;;6.10;3.50;;;31.90;46.10;;;;;;5023342;28;20036;-66
2023/06/25 10:48:22;;;;;;;7.50;3.42;;;32.00;45.90;;;;;;5024303;28;20354;-67
2023/06/25 10:50:48;;;;;;;5.15;3.38;;;32.30;45.40;;;;;;5030063;28;20033;-67
2023/06/25 10:53:19;;;;;;;4.45;3.15;;;33.00;43.10;;;;;;5028057;28;20104;-68
2023/06/25 10:55:48;;;;;;;5.97;3.28;;;32.80;43.10;;;;;;5026221;28;20151;-67
2023/06/25 10:58:18;;;;;;;5.47;3.50;;;32.10;44.10;;;;;;5016686;28;20021;-67
2023/06/25 11:00:44;;;;;;;6.50;3.60;;;31.50;44.00;;;;;;5031286;28;20485;-67
2023/06/25 11:03:10;;;;;;;4.50;3.30;;;31.10;45.20;;;;;;5026272;28;20033;-67
2023/06/25 11:05:41;;;;;;;7.45;3.38;;;30.80;46.50;;;;;;5023397;28;20445;-67
2023/06/25 11:08:07;;;;;;;7.22;4.10;;;29.90;46.80;;;;;;5030631;28;20037;-66
2023/06/25 11:10:35;;;;;;;5.45;3.70;;;29.60;48.40;;;;;;5026669;28;20053;-67
2023/06/25 11:13:01;;;;;;;5.85;3.92;;;29.50;47.30;;;;;;5024283;28;20470;-66
2023/06/25 11:15:33;;;;;;;7.15;4.18;;;29.50;47.40;;;;;;5017990;28;20746;-69
2023/06/25 11:18:00;;;;;;;6.90;4.35;;;29.40;48.60;;;;;;5032943;28;20037;-67
2023/06/25 11:20:26;;;;;;;10.90;4.50;;;29.80;47.70;;;;;;5029335;28;20140;-66
2023/06/25 11:22:53;;;;;;;5.78;3.85;;;30.20;48.30;;;;;;5029023;28;20306;-66
2023/06/25 11:25:21;;;;;;;6.22;4.22;;;31.00;47.40;;;;;;5028016;28;20061;-67
2023/06/25 11:27:48;;;;;;;5.63;3.85;;;31.50;46.70;;;;;;5026197;28;20026;-67
2023/06/25 11:30:14;;;;;;;6.57;3.80;;;31.00;46.80;;;;;;5022233;28;20042;-67
2023/06/25 11:32:40;;;;;;;5.85;3.85;;;31.40;46.40;;;;;;5024325;28;20068;-68
2023/06/25 11:35:13;;;;;;;5.50;3.95;;;31.50;46.90;;;;;;5031895;28;20311;-68
2023/06/25 11:37:49;;;;;;;5.22;3.47;;;30.80;47.70;;;;;;5028761;28;20053;-67
2023/06/25 11:40:25;;;;;;;5.22;3.10;;;31.40;45.30;;;;;;5026176;28;20028;-67
2023/06/25 11:42:51;;;;;;;7.22;3.80;;;32.20;46.10;;;;;;5027681;28;20124;-67
2023/06/25 11:45:18;;;;;;;7.05;3.92;;;31.30;44.70;;;;;;5030782;28;20136;-67
2023/06/25 11:47:50;;;;;;;5.40;3.83;;;30.70;46.20;;;;;;5028744;28;20458;-66
2023/06/25 11:50:18;;;;;;;5.15;3.78;;;30.40;46.70;;;;;;5030925;28;20342;-67
2023/06/25 11:52:44;;;;;;;5.28;4.13;;;30.70;48.80;;;;;;5034076;28;20114;-67
2023/06/25 11:55:11;;;;;;;6.35;3.90;;;31.30;46.10;;;;;;5025566;28;20068;-67
2023/06/25 11:57:37;;;;;;;9.73;4.00;;;31.80;45.60;;;;;;5036299;28;20036;-66
2023/06/25 12:00:03;;;;;;;4.72;3.45;;;32.10;44.10;;;;;;5028034;28;20037;-67
2023/06/25 12:02:29;;;;;;;4.90;3.47;;;32.00;44.60;;;;;;5029136;28;20060;-66
2023/06/25 12:04:54;;;;;;;7.95;3.80;;;32.50;42.60;;;;;;5034531;28;20107;-66
2023/06/25 12:07:20;;;;;;;5.10;3.72;;;32.90;41.10;;;;;;5027937;28;20021;-66
2023/06/25 12:09:45;;;;;;;4.15;3.30;;;33.00;41.60;;;;;;5030808;28;20038;-67
2023/06/25 12:12:11;;;;;;;5.03;3.38;;;33.80;42.00;;;;;;5029945;28;20547;-66
2023/06/25 12:14:36;;;;;;;6.13;3.70;;;34.00;42.10;;;;;;5027662;28;20033;-67
2023/06/25 12:17:02;;;;;;;5.40;3.47;;;34.20;40.90;;;;;;5022745;28;20504;-66
2023/06/25 12:19:28;;;;;;;4.60;3.05;;;34.40;40.70;;;;;;5028499;28;20048;-67
2023/06/25 12:21:56;;;;;;;6.25;3.28;;;34.90;40.30;;;;;;5030432;28;20402;-66
2023/06/25 12:24:22;;;;;;;6.07;3.90;;;33.50;40.70;;;;;;5029509;28;20021;-69
2023/06/25 12:26:48;;;;;;;4.68;3.55;;;32.60;41.90;;;;;;5033078;28;20143;-66
2023/06/25 12:29:13;;;;;;;4.95;3.35;;;32.00;43.10;;;;;;5028123;28;20426;-66
2023/06/25 12:31:39;;;;;;;6.88;4.07;;;31.70;45.60;;;;;;5034701;28;20048;-68